sensor_id;sensor_type;location;lat;lon;timestamp;P1;durP1;ratioP1;P2;durP2;ratioP2
19946;SDS011;10135;50.702;7.276;2022-09-01T00:01:23;1.98;;;1.80;;
19946;SDS011;10135;50.702;7.276;2022-09-01T00:03:26;1.92;;;1.90;;
19946;SDS011;10135;50.702;7.276;2022-09-01T00:05:26;2.33;;;2.22;;
19946;SDS011;10135;50.702;7.276;2022-09-01T00:07:29;1.73;;;1.70;;
19946;SDS011;10135;50.702;7.276;2022-09-01T00:09:30;2.10;;;2.00;;
19946;SDS011;10135;50.702;7.276;2022-09-01T00:11:32;1.90;;;1.90;;
19946;SDS011;10135;50.702;7.276;2022-09-01T00:13:33;2.20;;;2.10;;
19946;SDS011;10135;50.702;7.276;2022-09-01T00:15:34;2.53;;;2.10;;
19946;SDS011;10135;50.702;7.276;2022-09-01T00:17:35;2.78;;;2.08;;
19946;SDS011;10135;50.702;7.276;2022-09-01T00:19:36;2.03;;;1.92;;
19946;SDS011;10135;50.702;7.276;2022-09-01T00:21:40;2.00;;;1.90;;
19946;SDS011;10135;50.702;7.276;2022-09-01T00:23:43;2.22;;;2.13;;
19946;SDS011;10135;50.702;7.276;2022-09-01T00:25:44;1.70;;;1.70;;
19946;SDS011;10135;50.702;7.276;2022-09-01T00:27:46;1.90;;;1.90;;
19946;SDS011;10135;50.702;7.276;2022-09-01T00:29:48;2.17;;;2.07;;
19946;SDS011;10135;50.702;7.276;2022-09-01T00:31:49;1.97;;;1.87;;
19946;SDS011;10135;50.702;7.276;2022-09-01T00:33:51;2.03;;;1.93;;
19946;SDS011;10135;50.702;7.276;2022-09-01T00:35:51;2.42;;;2.00;;
19946;SDS011;10135;50.702;7.276;2022-09-01T00:37:53;2.13;;;2.03;;
19946;SDS011;10135;50.702;7.276;2022-09-01T00:39:53;1.80;;;1.80;;
19946;SDS011;10135;50.702;7.276;2022-09-01T00:41:54;1.87;;;1.80;;
19946;SDS011;10135;50.702;7.276;2022-09-01T00:43:56;1.80;;;1.70;;
19946;SDS011;10135;50.702;7.276;2022-09-01T00:46:00;2.15;;;1.98;;
19946;SDS011;10135;50.702;7.276;2022-09-01T00:48:06;2.10;;;2.00;;
19946;SDS011;10135;50.702;7.276;2022-09-01T00:50:08;3.58;;;1.65;;
19946;SDS011;10135;50.702;7.276;2022-09-01T00:52:15;1.83;;;1.73;;
19946;SDS011;10135;50.702;7.276;2022-09-01T00:54:50;1.87;;;1.77;;
19946;SDS011;10135;50.702;7.276;2022-09-01T00:56:58;1.77;;;1.73;;
19946;SDS011;10135;50.702;7.276;2022-09-01T00:59:02;1.70;;;1.70;;
19946;SDS011;10135;50.702;7.276;2022-09-01T01:01:07;1.57;;;1.57;;
19946;SDS011;10135;50.702;7.276;2022-09-01T01:03:11;1.60;;;1.60;;
19946;SDS011;10135;50.702;7.276;2022-09-01T01:05:13;1.90;;;1.80;;
19946;SDS011;10135;50.702;7.276;2022-09-01T01:07:14;1.77;;;1.63;;
19946;SDS011;10135;50.702;7.276;2022-09-01T01:09:19;1.77;;;1.77;;
19946;SDS011;10135;50.702;7.276;2022-09-01T01:11:21;1.60;;;1.60;;
19946;SDS011;10135;50.702;7.276;2022-09-01T01:13:23;3.67;;;1.70;;
19946;SDS011;10135;50.702;7.276;2022-09-01T01:15:26;1.73;;;1.73;;
19946;SDS011;10135;50.702;7.276;2022-09-01T01:17:28;2.00;;;1.70;;
19946;SDS011;10135;50.702;7.276;2022-09-01T01:22:01;1.80;;;1.80;;
19946;SDS011;10135;50.702;7.276;2022-09-01T01:24:29;1.70;;;1.70;;
19946;SDS011;10135;50.702;7.276;2022-09-01T01:26:33;1.77;;;1.67;;
19946;SDS011;10135;50.702;7.276;2022-09-01T01:28:35;1.90;;;1.80;;
19946;SDS011;10135;50.702;7.276;2022-09-01T01:30:41;1.60;;;1.60;;
19946;SDS011;10135;50.702;7.276;2022-09-01T01:32:49;1.87;;;1.77;;
19946;SDS011;10135;50.702;7.276;2022-09-01T01:34:51;2.00;;;1.70;;
19946;SDS011;10135;50.702;7.276;2022-09-01T01:36:52;1.50;;;1.50;;
19946;SDS011;10135;50.702;7.276;2022-09-01T01:38:54;2.65;;;1.70;;
19946;SDS011;10135;50.702;7.276;2022-09-01T01:40:56;2.70;;;1.60;;
19946;SDS011;10135;50.702;7.276;2022-09-01T01:42:57;1.73;;;1.47;;
19946;SDS011;10135;50.702;7.276;2022-09-01T01:45:00;1.83;;;1.80;;
19946;SDS011;10135;50.702;7.276;2022-09-01T01:47:02;1.53;;;1.53;;
19946;SDS011;10135;50.702;7.276;2022-09-01T01:49:12;1.87;;;1.87;;
19946;SDS011;10135;50.702;7.276;2022-09-01T01:51:19;1.70;;;1.60;;
19946;SDS011;10135;50.702;7.276;2022-09-01T01:53:26;1.80;;;1.80;;
19946;SDS011;10135;50.702;7.276;2022-09-01T01:55:28;1.73;;;1.63;;
19946;SDS011;10135;50.702;7.276;2022-09-01T01:57:30;1.83;;;1.73;;
19946;SDS011;10135;50.702;7.276;2022-09-01T01:59:31;1.80;;;1.70;;
19946;SDS011;10135;50.702;7.276;2022-09-01T02:01:32;2.03;;;1.80;;
19946;SDS011;10135;50.702;7.276;2022-09-01T02:03:33;1.97;;;1.87;;
19946;SDS011;10135;50.702;7.276;2022-09-01T02:05:37;1.87;;;1.77;;
19946;SDS011;10135;50.702;7.276;2022-09-01T02:07:39;1.90;;;1.90;;
19946;SDS011;10135;50.702;7.276;2022-09-01T02:09:41;2.20;;;1.53;;
19946;SDS011;10135;50.702;7.276;2022-09-01T02:11:45;1.67;;;1.67;;
19946;SDS011;10135;50.702;7.276;2022-09-01T02:13:45;2.50;;;1.70;;
19946;SDS011;10135;50.702;7.276;2022-09-01T02:15:49;1.80;;;1.80;;
19946;SDS011;10135;50.702;7.276;2022-09-01T02:17:54;1.70;;;1.70;;
19946;SDS011;10135;50.702;7.276;2022-09-01T02:19:59;1.80;;;1.70;;
19946;SDS011;10135;50.702;7.276;2022-09-01T02:21:59;1.87;;;1.77;;
19946;SDS011;10135;50.702;7.276;2022-09-01T02:24:04;1.77;;;1.67;;
19946;SDS011;10135;50.702;7.276;2022-09-01T02:26:07;1.53;;;1.53;;
19946;SDS011;10135;50.702;7.276;2022-09-01T02:28:11;1.67;;;1.57;;
19946;SDS011;10135;50.702;7.276;2022-09-01T02:30:15;1.60;;;1.60;;
19946;SDS011;10135;50.702;7.276;2022-09-01T02:32:15;2.50;;;1.90;;
19946;SDS011;10135;50.702;7.276;2022-09-01T02:34:21;1.57;;;1.57;;
19946;SDS011;10135;50.702;7.276;2022-09-01T02:36:24;3.03;;;1.87;;
19946;SDS011;10135;50.702;7.276;2022-09-01T02:38:26;1.90;;;1.80;;
19946;SDS011;10135;50.702;7.276;2022-09-01T02:40:28;1.97;;;1.90;;
19946;SDS011;10135;50.702;7.276;2022-09-01T02:42:30;2.13;;;2.03;;
19946;SDS011;10135;50.702;7.276;2022-09-01T02:44:30;1.77;;;1.73;;
19946;SDS011;10135;50.702;7.276;2022-09-01T02:46:31;1.53;;;1.53;;
19946;SDS011;10135;50.702;7.276;2022-09-01T02:48:35;2.10;;;2.00;;
19946;SDS011;10135;50.702;7.276;2022-09-01T02:50:40;1.83;;;1.73;;
19946;SDS011;10135;50.702;7.276;2022-09-01T02:52:41;1.70;;;1.70;;
19946;SDS011;10135;50.702;7.276;2022-09-01T02:54:44;1.87;;;1.70;;
19946;SDS011;10135;50.702;7.276;2022-09-01T02:56:45;1.90;;;1.90;;
19946;SDS011;10135;50.702;7.276;2022-09-01T02:58:47;2.33;;;1.93;;
19946;SDS011;10135;50.702;7.276;2022-09-01T03:00:52;1.80;;;1.70;;
19946;SDS011;10135;50.702;7.276;2022-09-01T03:02:56;2.93;;;1.60;;
19946;SDS011;10135;50.702;7.276;2022-09-01T03:04:59;1.80;;;1.80;;
19946;SDS011;10135;50.702;7.276;2022-09-01T03:07:01;1.83;;;1.73;;
19946;SDS011;10135;50.702;7.276;2022-09-01T03:09:05;2.07;;;2.00;;
19946;SDS011;10135;50.702;7.276;2022-09-01T03:11:09;2.20;;;1.90;;
19946;SDS011;10135;50.702;7.276;2022-09-01T03:13:12;1.70;;;1.70;;
19946;SDS011;10135;50.702;7.276;2022-09-01T03:15:17;1.97;;;1.87;;
19946;SDS011;10135;50.702;7.276;2022-09-01T03:17:17;1.80;;;1.80;;
19946;SDS011;10135;50.702;7.276;2022-09-01T03:19:18;1.83;;;1.80;;
19946;SDS011;10135;50.702;7.276;2022-09-01T03:21:19;2.13;;;1.80;;
19946;SDS011;10135;50.702;7.276;2022-09-01T03:23:22;1.70;;;1.70;;
19946;SDS011;10135;50.702;7.276;2022-09-01T03:25:24;1.67;;;1.67;;
19946;SDS011;10135;50.702;7.276;2022-09-01T03:27:25;1.70;;;1.60;;
19946;SDS011;10135;50.702;7.276;2022-09-01T03:29:25;2.00;;;1.90;;
19946;SDS011;10135;50.702;7.276;2022-09-01T03:31:26;1.90;;;1.80;;
19946;SDS011;10135;50.702;7.276;2022-09-01T03:33:28;2.07;;;1.97;;
19946;SDS011;10135;50.702;7.276;2022-09-01T03:35:29;1.80;;;1.80;;
19946;SDS011;10135;50.702;7.276;2022-09-01T03:37:34;2.40;;;1.90;;
19946;SDS011;10135;50.702;7.276;2022-09-01T03:39:36;1.90;;;1.90;;
19946;SDS011;10135;50.702;7.276;2022-09-01T03:41:37;1.80;;;1.70;;
19946;SDS011;10135;50.702;7.276;2022-09-01T03:43:37;1.87;;;1.87;;
19946;SDS011;10135;50.702;7.276;2022-09-01T03:45:39;1.80;;;1.70;;
19946;SDS011;10135;50.702;7.276;2022-09-01T03:47:41;1.90;;;1.80;;
19946;SDS011;10135;50.702;7.276;2022-09-01T03:49:42;1.90;;;1.90;;
19946;SDS011;10135;50.702;7.276;2022-09-01T03:51:44;1.90;;;1.80;;
19946;SDS011;10135;50.702;7.276;2022-09-01T03:53:45;2.27;;;2.07;;
19946;SDS011;10135;50.702;7.276;2022-09-01T03:55:46;1.87;;;1.77;;
19946;SDS011;10135;50.702;7.276;2022-09-01T03:57:48;2.00;;;1.90;;
19946;SDS011;10135;50.702;7.276;2022-09-01T03:59:50;2.03;;;1.93;;
19946;SDS011;10135;50.702;7.276;2022-09-01T04:01:50;2.20;;;2.00;;
19946;SDS011;10135;50.702;7.276;2022-09-01T04:03:51;2.10;;;1.90;;
19946;SDS011;10135;50.702;7.276;2022-09-01T04:05:53;2.00;;;1.80;;
19946;SDS011;10135;50.702;7.276;2022-09-01T04:07:54;2.10;;;2.00;;
19946;SDS011;10135;50.702;7.276;2022-09-01T04:09:57;1.90;;;1.80;;
19946;SDS011;10135;50.702;7.276;2022-09-01T04:11:58;1.90;;;1.80;;
19946;SDS011;10135;50.702;7.276;2022-09-01T04:13:59;1.93;;;1.90;;
19946;SDS011;10135;50.702;7.276;2022-09-01T04:16:01;1.97;;;1.87;;
19946;SDS011;10135;50.702;7.276;2022-09-01T04:18:04;1.80;;;1.80;;
19946;SDS011;10135;50.702;7.276;2022-09-01T04:20:09;2.13;;;2.00;;
19946;SDS011;10135;50.702;7.276;2022-09-01T04:22:10;2.13;;;1.87;;
19946;SDS011;10135;50.702;7.276;2022-09-01T04:24:13;1.90;;;1.60;;
19946;SDS011;10135;50.702;7.276;2022-09-01T04:26:14;2.10;;;2.00;;
19946;SDS011;10135;50.702;7.276;2022-09-01T04:28:19;1.93;;;1.93;;
19946;SDS011;10135;50.702;7.276;2022-09-01T04:30:23;1.90;;;1.90;;
19946;SDS011;10135;50.702;7.276;2022-09-01T04:32:25;2.13;;;2.07;;
19946;SDS011;10135;50.702;7.276;2022-09-01T04:34:27;1.80;;;1.80;;
19946;SDS011;10135;50.702;7.276;2022-09-01T04:36:41;2.23;;;2.00;;
19946;SDS011;10135;50.702;7.276;2022-09-01T04:38:45;2.30;;;2.10;;
19946;SDS011;10135;50.702;7.276;2022-09-01T04:40:48;2.20;;;2.10;;
19946;SDS011;10135;50.702;7.276;2022-09-01T04:42:48;2.17;;;2.07;;
19946;SDS011;10135;50.702;7.276;2022-09-01T04:44:49;2.17;;;2.07;;
19946;SDS011;10135;50.702;7.276;2022-09-01T04:46:52;2.17;;;2.07;;
19946;SDS011;10135;50.702;7.276;2022-09-01T04:48:54;2.43;;;2.17;;
19946;SDS011;10135;50.702;7.276;2022-09-01T04:50:56;2.03;;;2.00;;
19946;SDS011;10135;50.702;7.276;2022-09-01T04:52:57;2.20;;;2.10;;
19946;SDS011;10135;50.702;7.276;2022-09-01T04:55:01;2.20;;;1.90;;
19946;SDS011;10135;50.702;7.276;2022-09-01T04:57:02;2.07;;;1.97;;
19946;SDS011;10135;50.702;7.276;2022-09-01T04:59:06;2.10;;;2.00;;
19946;SDS011;10135;50.702;7.276;2022-09-01T05:01:16;1.90;;;1.80;;
19946;SDS011;10135;50.702;7.276;2022-09-01T05:03:23;1.90;;;1.90;;
19946;SDS011;10135;50.702;7.276;2022-09-01T05:05:24;1.90;;;1.80;;
19946;SDS011;10135;50.702;7.276;2022-09-01T05:07:26;2.10;;;2.00;;
19946;SDS011;10135;50.702;7.276;2022-09-01T05:09:30;2.30;;;2.20;;
19946;SDS011;10135;50.702;7.276;2022-09-01T05:11:35;3.93;;;2.17;;
19946;SDS011;10135;50.702;7.276;2022-09-01T05:13:38;4.17;;;2.40;;
19946;SDS011;10135;50.702;7.276;2022-09-01T05:15:39;2.13;;;1.83;;
19946;SDS011;10135;50.702;7.276;2022-09-01T05:17:45;2.03;;;1.93;;
19946;SDS011;10135;50.702;7.276;2022-09-01T05:19:47;1.83;;;1.73;;
19946;SDS011;10135;50.702;7.276;2022-09-01T05:21:49;2.10;;;2.00;;
19946;SDS011;10135;50.702;7.276;2022-09-01T05:23:50;2.93;;;1.90;;
19946;SDS011;10135;50.702;7.276;2022-09-01T05:25:53;2.27;;;2.17;;
19946;SDS011;10135;50.702;7.276;2022-09-01T05:27:53;2.40;;;2.23;;
19946;SDS011;10135;50.702;7.276;2022-09-01T05:29:55;5.03;;;2.17;;
19946;SDS011;10135;50.702;7.276;2022-09-01T05:31:59;2.57;;;2.47;;
19946;SDS011;10135;50.702;7.276;2022-09-01T05:34:07;2.23;;;2.10;;
19946;SDS011;10135;50.702;7.276;2022-09-01T05:36:10;2.23;;;2.13;;
19946;SDS011;10135;50.702;7.276;2022-09-01T05:38:13;2.70;;;2.30;;
19946;SDS011;10135;50.702;7.276;2022-09-01T05:40:14;2.67;;;2.17;;
19946;SDS011;10135;50.702;7.276;2022-09-01T05:42:15;2.27;;;2.17;;
19946;SDS011;10135;50.702;7.276;2022-09-01T05:44:16;2.87;;;2.17;;
19946;SDS011;10135;50.702;7.276;2022-09-01T05:46:20;3.00;;;1.90;;
19946;SDS011;10135;50.702;7.276;2022-09-01T05:48:23;2.33;;;2.13;;
19946;SDS011;10135;50.702;7.276;2022-09-01T05:50:24;2.23;;;2.10;;
19946;SDS011;10135;50.702;7.276;2022-09-01T05:52:27;2.33;;;2.23;;
19946;SDS011;10135;50.702;7.276;2022-09-01T05:54:32;2.33;;;2.13;;
19946;SDS011;10135;50.702;7.276;2022-09-01T05:56:35;2.77;;;1.83;;
19946;SDS011;10135;50.702;7.276;2022-09-01T05:58:40;2.40;;;2.30;;
19946;SDS011;10135;50.702;7.276;2022-09-01T06:00:46;2.00;;;1.90;;
19946;SDS011;10135;50.702;7.276;2022-09-01T06:02:48;2.00;;;1.90;;
19946;SDS011;10135;50.702;7.276;2022-09-01T06:04:48;2.37;;;1.90;;
19946;SDS011;10135;50.702;7.276;2022-09-01T06:06:49;3.20;;;2.10;;
19946;SDS011;10135;50.702;7.276;2022-09-01T06:08:52;2.00;;;1.90;;
19946;SDS011;10135;50.702;7.276;2022-09-01T06:10:58;4.03;;;2.30;;
19946;SDS011;10135;50.702;7.276;2022-09-01T06:12:59;2.40;;;2.10;;
19946;SDS011;10135;50.702;7.276;2022-09-01T06:15:01;3.57;;;2.53;;
19946;SDS011;10135;50.702;7.276;2022-09-01T06:17:02;3.37;;;1.90;;
19946;SDS011;10135;50.702;7.276;2022-09-01T06:19:03;2.43;;;2.17;;
19946;SDS011;10135;50.702;7.276;2022-09-01T06:21:04;1.90;;;1.80;;
19946;SDS011;10135;50.702;7.276;2022-09-01T06:23:07;2.10;;;2.00;;
19946;SDS011;10135;50.702;7.276;2022-09-01T06:25:11;2.23;;;2.10;;
19946;SDS011;10135;50.702;7.276;2022-09-01T06:27:13;2.07;;;1.97;;
19946;SDS011;10135;50.702;7.276;2022-09-01T06:29:19;4.97;;;2.30;;
19946;SDS011;10135;50.702;7.276;2022-09-01T06:31:23;1.90;;;1.80;;
19946;SDS011;10135;50.702;7.276;2022-09-01T06:33:29;2.00;;;1.90;;
19946;SDS011;10135;50.702;7.276;2022-09-01T06:35:30;3.00;;;1.70;;
19946;SDS011;10135;50.702;7.276;2022-09-01T06:37:31;1.97;;;1.67;;
19946;SDS011;10135;50.702;7.276;2022-09-01T06:39:33;1.93;;;1.70;;
19946;SDS011;10135;50.702;7.276;2022-09-01T06:41:34;1.70;;;1.60;;
19946;SDS011;10135;50.702;7.276;2022-09-01T06:43:40;2.00;;;1.90;;
19946;SDS011;10135;50.702;7.276;2022-09-01T06:45:42;1.97;;;1.87;;
19946;SDS011;10135;50.702;7.276;2022-09-01T06:47:53;1.93;;;1.50;;
19946;SDS011;10135;50.702;7.276;2022-09-01T06:49:54;3.40;;;2.07;;
19946;SDS011;10135;50.702;7.276;2022-09-01T06:51:58;2.23;;;2.00;;
19946;SDS011;10135;50.702;7.276;2022-09-01T06:54:01;3.07;;;1.90;;
19946;SDS011;10135;50.702;7.276;2022-09-01T06:56:02;2.60;;;1.80;;
19946;SDS011;10135;50.702;7.276;2022-09-01T06:58:04;5.13;;;1.90;;
19946;SDS011;10135;50.702;7.276;2022-09-01T07:00:08;1.60;;;1.50;;
19946;SDS011;10135;50.702;7.276;2022-09-01T07:02:20;1.70;;;1.60;;
19946;SDS011;10135;50.702;7.276;2022-09-01T07:04:21;1.70;;;1.60;;
19946;SDS011;10135;50.702;7.276;2022-09-01T07:06:22;1.70;;;1.70;;
19946;SDS011;10135;50.702;7.276;2022-09-01T07:08:26;3.63;;;1.87;;
19946;SDS011;10135;50.702;7.276;2022-09-01T07:10:27;2.23;;;1.77;;
19946;SDS011;10135;50.702;7.276;2022-09-01T07:12:28;1.70;;;1.60;;
19946;SDS011;10135;50.702;7.276;2022-09-01T07:14:30;1.60;;;1.60;;
19946;SDS011;10135;50.702;7.276;2022-09-01T07:16:33;1.40;;;1.40;;
19946;SDS011;10135;50.702;7.276;2022-09-01T07:18:39;1.80;;;1.70;;
19946;SDS011;10135;50.702;7.276;2022-09-01T07:20:39;4.10;;;1.50;;
19946;SDS011;10135;50.702;7.276;2022-09-01T07:22:41;1.50;;;1.50;;
19946;SDS011;10135;50.702;7.276;2022-09-01T07:24:42;2.28;;;1.48;;
19946;SDS011;10135;50.702;7.276;2022-09-01T07:26:45;1.55;;;1.42;;
19946;SDS011;10135;50.702;7.276;2022-09-01T07:28:52;1.70;;;1.30;;
19946;SDS011;10135;50.702;7.276;2022-09-01T07:30:53;2.35;;;1.40;;
19946;SDS011;10135;50.702;7.276;2022-09-01T07:32:54;1.37;;;1.10;;
19946;SDS011;10135;50.702;7.276;2022-09-01T07:34:55;1.80;;;1.50;;
19946;SDS011;10135;50.702;7.276;2022-09-01T07:36:56;1.40;;;1.40;;
19946;SDS011;10135;50.702;7.276;2022-09-01T07:38:58;1.80;;;1.20;;
19946;SDS011;10135;50.702;7.276;2022-09-01T07:41:00;1.17;;;1.17;;
19946;SDS011;10135;50.702;7.276;2022-09-01T07:43:01;1.25;;;1.25;;
19946;SDS011;10135;50.702;7.276;2022-09-01T07:45:07;2.83;;;1.67;;
19946;SDS011;10135;50.702;7.276;2022-09-01T07:47:10;1.30;;;1.20;;
19946;SDS011;10135;50.702;7.276;2022-09-01T07:49:13;1.35;;;1.25;;
19946;SDS011;10135;50.702;7.276;2022-09-01T07:51:14;1.38;;;1.20;;
19946;SDS011;10135;50.702;7.276;2022-09-01T07:53:20;2.28;;;1.40;;
19946;SDS011;10135;50.702;7.276;2022-09-01T07:55:24;2.40;;;1.23;;
19946;SDS011;10135;50.702;7.276;2022-09-01T07:57:26;2.75;;;1.25;;
19946;SDS011;10135;50.702;7.276;2022-09-01T07:59:27;1.23;;;1.23;;
19946;SDS011;10135;50.702;7.276;2022-09-01T08:01:29;3.72;;;1.27;;
19946;SDS011;10135;50.702;7.276;2022-09-01T08:03:29;2.15;;;1.33;;
19946;SDS011;10135;50.702;7.276;2022-09-01T08:05:30;4.95;;;1.23;;
19946;SDS011;10135;50.702;7.276;2022-09-01T08:07:33;1.70;;;1.60;;
19946;SDS011;10135;50.702;7.276;2022-09-01T08:09:36;2.80;;;1.30;;
19946;SDS011;10135;50.702;7.276;2022-09-01T08:11:37;1.42;;;1.33;;
19946;SDS011;10135;50.702;7.276;2022-09-01T08:13:38;1.30;;;1.30;;
19946;SDS011;10135;50.702;7.276;2022-09-01T08:15:39;1.10;;;1.10;;
19946;SDS011;10135;50.702;7.276;2022-09-01T08:17:40;2.13;;;1.33;;
19946;SDS011;10135;50.702;7.276;2022-09-01T08:19:41;1.38;;;1.10;;
19946;SDS011;10135;50.702;7.276;2022-09-01T08:21:42;1.20;;;1.20;;
19946;SDS011;10135;50.702;7.276;2022-09-01T08:23:43;1.20;;;1.20;;
19946;SDS011;10135;50.702;7.276;2022-09-01T08:25:47;1.30;;;1.30;;
19946;SDS011;10135;50.702;7.276;2022-09-01T08:27:49;1.10;;;1.10;;
19946;SDS011;10135;50.702;7.276;2022-09-01T08:29:49;1.20;;;1.20;;
19946;SDS011;10135;50.702;7.276;2022-09-01T08:31:50;1.30;;;1.20;;
19946;SDS011;10135;50.702;7.276;2022-09-01T08:33:53;1.38;;;1.27;;
19946;SDS011;10135;50.702;7.276;2022-09-01T08:35:54;1.70;;;1.20;;
19946;SDS011;10135;50.702;7.276;2022-09-01T08:37:56;1.52;;;1.25;;
19946;SDS011;10135;50.702;7.276;2022-09-01T08:39:59;1.77;;;1.42;;
19946;SDS011;10135;50.702;7.276;2022-09-01T08:44:59;1.20;;;1.20;;
19946;SDS011;10135;50.702;7.276;2022-09-01T08:47:13;1.25;;;1.25;;
19946;SDS011;10135;50.702;7.276;2022-09-01T08:49:18;1.20;;;1.20;;
19946;SDS011;10135;50.702;7.276;2022-09-01T08:51:31;1.50;;;1.48;;
19946;SDS011;10135;50.702;7.276;2022-09-01T08:53:43;1.67;;;1.50;;
19946;SDS011;10135;50.702;7.276;2022-09-01T08:55:54;1.23;;;1.23;;
19946;SDS011;10135;50.702;7.276;2022-09-01T08:57:58;1.98;;;1.30;;
19946;SDS011;10135;50.702;7.276;2022-09-01T09:00:00;1.48;;;1.38;;
19946;SDS011;10135;50.702;7.276;2022-09-01T09:02:22;2.15;;;1.30;;
19946;SDS011;10135;50.702;7.276;2022-09-01T09:05:03;1.10;;;1.10;;
19946;SDS011;10135;50.702;7.276;2022-09-01T09:07:31;1.25;;;1.23;;
19946;SDS011;10135;50.702;7.276;2022-09-01T09:10:05;1.20;;;1.20;;
19946;SDS011;10135;50.702;7.276;2022-09-01T09:12:31;1.85;;;1.30;;
19946;SDS011;10135;50.702;7.276;2022-09-01T09:14:53;1.25;;;1.15;;
19946;SDS011;10135;50.702;7.276;2022-09-01T09:16:56;4.03;;;1.20;;
19946;SDS011;10135;50.702;7.276;2022-09-01T09:19:02;1.30;;;1.30;;
19946;SDS011;10135;50.702;7.276;2022-09-01T09:21:15;1.50;;;1.40;;
19946;SDS011;10135;50.702;7.276;2022-09-01T09:23:27;1.23;;;1.23;;
19946;SDS011;10135;50.702;7.276;2022-09-01T09:25:38;1.33;;;1.27;;
19946;SDS011;10135;50.702;7.276;2022-09-01T09:27:40;2.63;;;1.70;;
19946;SDS011;10135;50.702;7.276;2022-09-01T09:29:44;1.60;;;1.27;;
19946;SDS011;10135;50.702;7.276;2022-09-01T09:32:02;1.33;;;1.33;;
19946;SDS011;10135;50.702;7.276;2022-09-01T09:36:30;8.32;;;1.40;;
19946;SDS011;10135;50.702;7.276;2022-09-01T09:38:34;1.55;;;1.50;;
19946;SDS011;10135;50.702;7.276;2022-09-01T09:40:35;2.35;;;1.38;;
19946;SDS011;10135;50.702;7.276;2022-09-01T09:43:21;1.52;;;1.52;;
19946;SDS011;10135;50.702;7.276;2022-09-01T09:44:57;1.67;;;1.58;;
19946;SDS011;10135;50.702;7.276;2022-09-01T09:46:58;1.60;;;1.60;;
19946;SDS011;10135;50.702;7.276;2022-09-01T09:51:31;1.67;;;1.60;;
19946;SDS011;10135;50.702;7.276;2022-09-01T09:53:32;1.60;;;1.50;;
19946;SDS011;10135;50.702;7.276;2022-09-01T09:55:33;1.70;;;1.70;;
19946;SDS011;10135;50.702;7.276;2022-09-01T09:57:37;1.58;;;1.58;;
19946;SDS011;10135;50.702;7.276;2022-09-01T09:59:44;1.73;;;1.67;;
19946;SDS011;10135;50.702;7.276;2022-09-01T10:01:47;1.60;;;1.50;;
19946;SDS011;10135;50.702;7.276;2022-09-01T10:03:51;2.47;;;1.80;;
19946;SDS011;10135;50.702;7.276;2022-09-01T10:05:58;2.33;;;1.60;;
19946;SDS011;10135;50.702;7.276;2022-09-01T10:07:58;1.70;;;1.67;;
19946;SDS011;10135;50.702;7.276;2022-09-01T10:10:05;2.50;;;1.80;;
19946;SDS011;10135;50.702;7.276;2022-09-01T10:12:26;2.25;;;2.15;;
19946;SDS011;10135;50.702;7.276;2022-09-01T10:14:34;1.70;;;1.70;;
19946;SDS011;10135;50.702;7.276;2022-09-01T10:16:42;1.50;;;1.50;;
19946;SDS011;10135;50.702;7.276;2022-09-01T10:18:49;2.20;;;2.00;;
19946;SDS011;10135;50.702;7.276;2022-09-01T10:21:01;1.80;;;1.70;;
19946;SDS011;10135;50.702;7.276;2022-09-01T10:23:07;2.42;;;1.77;;
19946;SDS011;10135;50.702;7.276;2022-09-01T10:25:10;2.05;;;1.83;;
19946;SDS011;10135;50.702;7.276;2022-09-01T10:27:34;1.88;;;1.77;;
19946;SDS011;10135;50.702;7.276;2022-09-01T10:29:42;1.98;;;1.70;;
19946;SDS011;10135;50.702;7.276;2022-09-01T10:31:48;1.75;;;1.65;;
19946;SDS011;10135;50.702;7.276;2022-09-01T10:33:52;1.73;;;1.70;;
19946;SDS011;10135;50.702;7.276;2022-09-01T10:35:52;1.90;;;1.80;;
19946;SDS011;10135;50.702;7.276;2022-09-01T10:37:55;1.60;;;1.60;;
19946;SDS011;10135;50.702;7.276;2022-09-01T10:42:35;1.70;;;1.60;;
19946;SDS011;10135;50.702;7.276;2022-09-01T10:44:36;2.30;;;2.10;;
19946;SDS011;10135;50.702;7.276;2022-09-01T10:46:56;1.77;;;1.60;;
19946;SDS011;10135;50.702;7.276;2022-09-01T10:49:01;1.90;;;1.90;;
19946;SDS011;10135;50.702;7.276;2022-09-01T10:51:42;1.70;;;1.70;;
19946;SDS011;10135;50.702;7.276;2022-09-01T10:53:49;1.90;;;1.80;;
19946;SDS011;10135;50.702;7.276;2022-09-01T10:56:37;1.70;;;1.60;;
19946;SDS011;10135;50.702;7.276;2022-09-01T11:00:44;2.10;;;2.00;;
19946;SDS011;10135;50.702;7.276;2022-09-01T11:05:11;1.98;;;1.88;;
19946;SDS011;10135;50.702;7.276;2022-09-01T11:09:25;2.08;;;1.95;;
19946;SDS011;10135;50.702;7.276;2022-09-01T11:11:39;2.45;;;1.75;;
19946;SDS011;10135;50.702;7.276;2022-09-01T11:13:51;2.00;;;1.90;;
19946;SDS011;10135;50.702;7.276;2022-09-01T11:15:54;1.95;;;1.70;;
19946;SDS011;10135;50.702;7.276;2022-09-01T11:17:55;1.70;;;1.70;;
19946;SDS011;10135;50.702;7.276;2022-09-01T11:20:05;2.17;;;1.92;;
19946;SDS011;10135;50.702;7.276;2022-09-01T11:22:28;1.75;;;1.75;;
19946;SDS011;10135;50.702;7.276;2022-09-01T11:26:45;1.67;;;1.67;;
19946;SDS011;10135;50.702;7.276;2022-09-01T11:28:47;1.92;;;1.92;;
19946;SDS011;10135;50.702;7.276;2022-09-01T11:33:07;3.50;;;1.92;;
19946;SDS011;10135;50.702;7.276;2022-09-01T11:35:32;2.10;;;1.98;;
19946;SDS011;10135;50.702;7.276;2022-09-01T11:37:33;2.25;;;2.15;;
19946;SDS011;10135;50.702;7.276;2022-09-01T11:39:38;2.40;;;2.22;;
19946;SDS011;10135;50.702;7.276;2022-09-01T11:41:58;2.30;;;2.20;;
19946;SDS011;10135;50.702;7.276;2022-09-01T11:44:06;2.10;;;2.00;;
19946;SDS011;10135;50.702;7.276;2022-09-01T11:46:35;2.60;;;2.30;;
19946;SDS011;10135;50.702;7.276;2022-09-01T11:48:38;2.25;;;2.15;;
19946;SDS011;10135;50.702;7.276;2022-09-01T11:50:44;2.05;;;2.00;;
19946;SDS011;10135;50.702;7.276;2022-09-01T11:53:11;2.10;;;2.00;;
19946;SDS011;10135;50.702;7.276;2022-09-01T11:57:38;2.00;;;1.90;;
19946;SDS011;10135;50.702;7.276;2022-09-01T11:59:39;1.85;;;1.83;;
19946;SDS011;10135;50.702;7.276;2022-09-01T12:01:42;1.90;;;1.90;;
19946;SDS011;10135;50.702;7.276;2022-09-01T12:03:44;2.25;;;1.83;;
19946;SDS011;10135;50.702;7.276;2022-09-01T12:05:47;2.15;;;2.05;;
19946;SDS011;10135;50.702;7.276;2022-09-01T12:07:58;2.30;;;2.20;;
19946;SDS011;10135;50.702;7.276;2022-09-01T12:10:21;1.65;;;1.65;;
19946;SDS011;10135;50.702;7.276;2022-09-01T12:14:38;1.80;;;1.80;;
19946;SDS011;10135;50.702;7.276;2022-09-01T12:16:39;2.22;;;2.13;;
19946;SDS011;10135;50.702;7.276;2022-09-01T12:18:45;2.58;;;2.13;;
19946;SDS011;10135;50.702;7.276;2022-09-01T12:20:50;2.30;;;2.10;;
19946;SDS011;10135;50.702;7.276;2022-09-01T12:22:53;2.20;;;2.10;;
19946;SDS011;10135;50.702;7.276;2022-09-01T12:24:54;2.13;;;2.03;;
19946;SDS011;10135;50.702;7.276;2022-09-01T12:26:55;2.10;;;2.00;;
19946;SDS011;10135;50.702;7.276;2022-09-01T12:28:57;2.67;;;1.95;;
19946;SDS011;10135;50.702;7.276;2022-09-01T12:30:59;2.08;;;1.98;;
19946;SDS011;10135;50.702;7.276;2022-09-01T12:33:05;2.30;;;2.20;;
19946;SDS011;10135;50.702;7.276;2022-09-01T12:35:14;2.20;;;2.10;;
19946;SDS011;10135;50.702;7.276;2022-09-01T12:37:22;2.10;;;1.95;;
19946;SDS011;10135;50.702;7.276;2022-09-01T12:39:25;2.30;;;2.10;;
19946;SDS011;10135;50.702;7.276;2022-09-01T12:46:45;2.33;;;2.22;;
19946;SDS011;10135;50.702;7.276;2022-09-01T12:48:46;2.13;;;2.03;;
19946;SDS011;10135;50.702;7.276;2022-09-01T12:50:47;1.90;;;1.80;;
19946;SDS011;10135;50.702;7.276;2022-09-01T12:52:53;2.13;;;2.03;;
19946;SDS011;10135;50.702;7.276;2022-09-01T12:56:57;3.22;;;1.90;;
19946;SDS011;10135;50.702;7.276;2022-09-01T12:59:08;2.22;;;2.13;;
19946;SDS011;10135;50.702;7.276;2022-09-01T13:01:24;2.33;;;2.22;;
19946;SDS011;10135;50.702;7.276;2022-09-01T13:03:30;2.20;;;2.10;;
19946;SDS011;10135;50.702;7.276;2022-09-01T13:05:38;2.30;;;2.20;;
19946;SDS011;10135;50.702;7.276;2022-09-01T13:07:41;1.95;;;1.92;;